ADDS METAR Data INFO
IDs: Format: Raw Decoded Include TAF

Data at: 1910 UTC 23 Apr 2018

KJKJ 231855Z AUTO 34005KT 10SM CLR 17/08 A3018 RMK AO2
KJKJ 231835Z AUTO 34004KT 10SM CLR 17/08 A3018 RMK AO2
KJKJ 231815Z AUTO 32005KT 10SM CLR 17/07 A3018 RMK AO2
KJKJ 231755Z AUTO 33006KT 10SM CLR 17/06 A3019 RMK AO2
KJKJ 231735Z AUTO 34003KT 10SM CLR 16/06 A3019 RMK AO2
KJKJ 231715Z AUTO 31004KT 10SM CLR 16/06 A3020 RMK AO2
KJKJ 231655Z AUTO 24006KT 10SM CLR 16/06 A3020 RMK AO2
KJKJ 231635Z AUTO 00000KT 10SM CLR 14/05 A3020 RMK AO2
KJKJ 231615Z AUTO 21003KT 10SM CLR 13/06 A3020 RMK AO2
KJKJ 231555Z AUTO 22005KT 10SM CLR 13/06 A3020 RMK AO2
KJKJ 231535Z AUTO 20005KT 10SM CLR 11/06 A3020 RMK AO2
KJKJ 231515Z AUTO 19006KT 10SM CLR 10/05 A3020 RMK AO2
KJKJ 231455Z AUTO 18007KT 10SM CLR 09/04 A3020 RMK AO2
KJKJ 231435Z AUTO 17010KT 10SM CLR 08/04 A3020 RMK AO2
KJKJ 231415Z AUTO 17008KT 10SM CLR 07/03 A3021 RMK AO2
KJKJ 231355Z AUTO 17005KT 10SM CLR 06/03 A3022 RMK AO2
KJKJ 231335Z AUTO 00000KT 7SM SCT080 05/02 A3023 RMK AO2
KJKJ 231315Z AUTO 20003KT 7SM BKN080 04/02 A3023 RMK AO2
KJKJ 231255Z AUTO 17006KT 7SM BKN080 04/02 A3022 RMK AO2
KJKJ 231235Z AUTO 16007KT 7SM BKN080 03/02 A3021 RMK AO2
KJKJ 231215Z AUTO 17008KT 7SM BKN080 03/02 A3021 RMK AO2
KJKJ 231155Z AUTO 17008KT 7SM BKN080 03/01 A3021 RMK AO2
KJKJ 231135Z AUTO 17007KT 7SM SCT080 03/01 A3020 RMK AO2
KJKJ 231115Z AUTO 17007KT 7SM CLR 03/01 A3019 RMK AO2
KJKJ 231055Z AUTO 17008KT 7SM CLR 03/02 A3019 RMK AO2
KJKJ 231035Z AUTO 16009KT 7SM CLR 03/02 A3019 RMK AO2
KJKJ 231015Z AUTO 16008KT 7SM CLR 03/02 A3019 RMK AO2
KJKJ 230955Z AUTO 17008KT 7SM SCT100 04/02 A3019 RMK AO2
KJKJ 230935Z AUTO 17007KT 7SM BKN100 04/02 A3018 RMK AO2
KJKJ 230915Z AUTO 17009KT 7SM BKN100 04/02 A3018 RMK AO2
KJKJ 230855Z AUTO 17011KT 7SM BKN110 04/02 A3018 RMK AO2
KJKJ 230835Z AUTO 17010KT 10SM BKN110 05/02 A3018 RMK AO2
KJKJ 230815Z AUTO 17008KT 10SM SCT110 05/03 A3018 RMK AO2
KJKJ 230755Z AUTO 16010KT 10SM CLR 05/03 A3018 RMK AO2
KJKJ 230735Z AUTO 16009KT 10SM CLR 06/03 A3018 RMK AO2
KJKJ 230715Z AUTO 16010KT 10SM CLR 06/03 A3018 RMK AO2
KJKJ 230655Z AUTO 16010KT 10SM CLR 06/03 A3019 RMK AO2
KJKJ 230635Z AUTO 16009KT 10SM CLR 06/03 A3019 RMK AO2
KJKJ 230615Z AUTO 16009KT 10SM CLR 06/03 A3019 RMK AO2
KJKJ 230555Z AUTO 17010KT 10SM CLR 07/03 A3019 RMK AO2
KJKJ 230535Z AUTO 17010KT 10SM CLR 07/03 A3019 RMK AO2
KJKJ 230515Z AUTO 17009KT 10SM CLR 07/03 A3019 RMK AO2
KJKJ 230455Z AUTO 17010KT 10SM CLR 08/03 A3019 RMK AO2
KJKJ 230435Z AUTO 17011KT 10SM CLR 08/03 A3019 RMK AO2
KJKJ 230415Z AUTO 17011KT 10SM CLR 08/04 A3019 RMK AO2
KJKJ 230355Z AUTO 17009KT 10SM CLR 08/04 A3019 RMK AO2
KJKJ 230335Z AUTO 17010KT 10SM CLR 09/05 A3019 RMK AO2
KJKJ 230315Z AUTO 17011KT 10SM CLR 09/04 A3019 RMK AO2
KJKJ 230255Z AUTO 17010KT 10SM CLR 10/04 A3019 RMK AO2
KJKJ 230235Z AUTO 17010KT 10SM CLR 11/04 A3019 RMK AO2
KJKJ 230215Z AUTO 17010KT 10SM CLR 12/05 A3018 RMK AO2
KJKJ 230155Z AUTO 17010KT 10SM CLR 12/06 A3017 RMK AO2
KJKJ 230135Z AUTO 17011KT 10SM CLR 12/06 A3017 RMK AO2
KJKJ 230115Z AUTO 17011KT 10SM CLR 13/06 A3017 RMK AO2
KJKJ 230055Z AUTO 17010KT 10SM CLR 14/06 A3017 RMK AO2
KJKJ 230035Z AUTO 17012KT 10SM CLR 15/05 A3017 RMK AO2
KJKJ 230015Z AUTO 18011KT 10SM CLR 16/04 A3017 RMK AO2
KJKJ 222355Z AUTO 18015KT 10SM CLR 17/04 A3017 RMK AO2
KJKJ 222335Z AUTO 19010G17KT 10SM CLR 17/04 A3017 RMK AO2
KJKJ 222315Z AUTO 19010G17KT 10SM CLR 17/04 A3017 RMK AO2
KJKJ 222255Z AUTO 19011G18KT 10SM CLR 18/03 A3017 RMK AO2
KJKJ 222235Z AUTO 18013KT 10SM CLR 18/03 A3017 RMK AO2
KJKJ 222215Z AUTO 19012G19KT 10SM SCT055 17/03 A3018 RMK AO2
KJKJ 222155Z AUTO 18012G20KT 10SM SCT055 18/04 A3018 RMK AO2
KJKJ 222135Z AUTO 19013G18KT 10SM SCT055 18/04 A3018 RMK AO2
KJKJ 222115Z AUTO 20011KT 10SM CLR 18/04 A3019 RMK AO2
KJKJ 222055Z AUTO 19012G18KT 10SM CLR 17/03 A3020 RMK AO2
KJKJ 222035Z AUTO 19012G20KT 10SM SCT055 17/03 A3020 RMK AO2
KJKJ 222015Z AUTO 20014G20KT 10SM CLR 17/03 A3021 RMK AO2
KJKJ 221955Z AUTO 19011KT 10SM SCT055 17/03 A3022 RMK AO2
KJKJ 221935Z AUTO 20015G20KT 10SM CLR 16/03 A3022 RMK AO2
KJKJ 221915Z AUTO 20013G16KT 10SM CLR 16/04 A3023 RMK AO2
KJKJ 221855Z AUTO 19013G16KT 10SM CLR 16/03 A3023 RMK AO2
KJKJ 221835Z AUTO 20013G22KT 10SM CLR 16/03 A3023 RMK AO2
KJKJ 221815Z AUTO 18013G19KT 10SM CLR 15/03 A3024 RMK AO2
KJKJ 221755Z AUTO 19010G18KT 10SM CLR 14/03 A3024 RMK AO2
KJKJ 221735Z AUTO 19013KT 10SM CLR 14/04 A3025 RMK AO2
KJKJ 221715Z AUTO 19009G14KT 10SM CLR 13/04 A3026 RMK AO2
KJKJ 221655Z AUTO 18010KT 10SM CLR 12/04 A3026 RMK AO2
KJKJ 221635Z AUTO 18010G14KT 10SM CLR 12/04 A3027 RMK AO2
KJKJ 221615Z AUTO 17011KT 10SM CLR 12/05 A3026 RMK AO2
KJKJ 221555Z AUTO 17011KT 10SM CLR 11/04 A3026 RMK AO2
KJKJ 221535Z AUTO 17010KT 10SM CLR 10/03 A3027 RMK AO2
KJKJ 221515Z AUTO 18009KT 10SM CLR 09/02 A3027 RMK AO2
KJKJ 221455Z AUTO 17009KT 10SM CLR 09/02 A3028 RMK AO2
KJKJ 221435Z AUTO 17008KT 10SM CLR 08/02 A3029 RMK AO2
KJKJ 221415Z AUTO 18009KT 10SM CLR 07/02 A3029 RMK AO2
KJKJ 221355Z AUTO 18005KT 10SM CLR 06/02 A3030 RMK AO2
KJKJ 221335Z AUTO 17008KT 10SM CLR 05/01 A3029 RMK AO2
KJKJ 221315Z AUTO 16012KT 10SM CLR 04/01 A3028 RMK AO2
KJKJ 221255Z AUTO 17009KT 10SM CLR 03/00 A3029 RMK AO2
KJKJ 221235Z AUTO 17009KT 10SM CLR 03/M01 A3029 RMK AO2
KJKJ 221215Z AUTO 16008KT 10SM CLR 02/M01 A3028 RMK AO2
KJKJ 221155Z AUTO 16007KT 7SM CLR 01/M01 A3029 RMK AO2
KJKJ 221135Z AUTO 15007KT 7SM CLR 01/M01 A3028 RMK AO2
KJKJ 221115Z AUTO 16005KT 7SM CLR 00/M01 A3028 RMK AO2
KJKJ 221055Z AUTO 16004KT 7SM CLR 01/M01 A3028 RMK AO2
KJKJ 221035Z AUTO 16006KT 7SM CLR 01/M01 A3028 RMK AO2
KJKJ 221015Z AUTO 15006KT 7SM CLR 01/00 A3029 RMK AO2
KJKJ 220955Z AUTO 15005KT 7SM CLR 01/00 A3029 RMK AO2
KJKJ 220935Z AUTO 15007KT 7SM CLR 02/00 A3029 RMK AO2
KJKJ 220915Z AUTO 15007KT 7SM CLR 02/01 A3029 RMK AO2
KJKJ 220855Z AUTO 15006KT 7SM CLR 02/01 A3029 RMK AO2
KJKJ 220835Z AUTO 15007KT 7SM CLR 02/01 A3029 RMK AO2
KJKJ 220815Z AUTO 15006KT 7SM CLR 02/01 A3029 RMK AO2
KJKJ 220755Z AUTO 15006KT 10SM CLR 03/01 A3029 RMK AO2
KJKJ 220735Z AUTO 15007KT 10SM CLR 03/02 A3029 RMK AO2
KJKJ 220715Z AUTO 16007KT 10SM CLR 04/02 A3029 RMK AO2